Time;durP1;ratioP1;P1;durP2;ratioP2;P2;SDS_P1;SDS_P2;PMS_P1;PMS_P2;Temp;Humidity;BMP_temperature;BMP_pressure;BME280_temperature;BME280_humidity;BME280_pressure;Samples;Min_cycle;Max_cycle;Signal;HPM_P1;HPM_P2
2023/09/14 00:04:18;;;;;;;0.00;0.00;;;;;;;18.47;100.00;102232.31;10450721;28;20080;-75
2023/09/14 00:09:20;;;;;;;0.10;0.10;;;;;;;18.77;100.00;102222.28;10449822;28;20049;-75
2023/09/14 00:14:22;;;;;;;0.00;0.00;;;;;;;18.89;100.00;102227.66;10456853;28;20072;-75
2023/09/14 00:19:25;;;;;;;0.10;0.10;;;;;;;18.41;100.00;102232.22;10440518;28;20488;-75
2023/09/14 00:24:27;;;;;;;0.00;0.00;;;;;;;18.36;100.00;102220.84;10429292;28;20560;-75
2023/09/14 00:29:29;;;;;;;0.00;0.00;;;;;;;18.96;100.00;102229.50;10455953;28;20749;-75
2023/09/14 00:34:31;;;;;;;0.05;0.03;;;;;;;18.96;100.00;102228.63;10432749;28;20052;-75
2023/09/14 00:39:32;;;;;;;0.00;0.00;;;;;;;19.21;100.00;102223.72;10432634;28;20053;-75
2023/09/14 00:44:34;;;;;;;0.00;0.00;;;;;;;18.94;100.00;102219.91;10449960;28;20119;-74
2023/09/14 00:49:36;;;;;;;0.00;0.00;;;;;;;19.02;100.00;102223.50;10435687;28;20066;-75
2023/09/14 00:54:39;;;;;;;0.10;0.10;;;;;;;19.36;100.00;102223.00;10448157;28;20095;-75
2023/09/14 00:59:41;;;;;;;0.00;0.00;;;;;;;19.36;100.00;102228.22;10453703;28;20128;-76
2023/09/14 01:04:42;;;;;;;0.00;0.00;;;;;;;18.66;100.00;102215.16;10447545;28;20468;-75
2023/09/14 01:09:44;;;;;;;0.30;0.13;;;;;;;18.57;100.00;102215.06;10432831;28;20095;-75
2023/09/14 01:15:20;;;;;;;0.00;0.00;;;;;;;19.01;100.00;102222.63;10454538;28;20048;-74
2023/09/14 01:20:47;;;;;;;0.00;0.00;;;;;;;18.59;100.00;102218.56;10443798;28;20052;-75
2023/09/14 01:25:49;;;;;;;0.00;0.00;;;;;;;18.64;100.00;102218.63;10438016;28;20491;-75
2023/09/14 01:30:51;;;;;;;0.05;0.05;;;;;;;18.53;100.00;102215.88;10437484;28;20075;-75
2023/09/14 01:36:02;;;;;;;0.00;0.00;;;;;;;17.78;100.00;102216.44;10437744;28;20400;-75
2023/09/14 01:41:04;;;;;;;0.00;0.00;;;;;;;17.86;100.00;102217.47;10442638;28;20069;-75
2023/09/14 01:46:07;;;;;;;1.23;0.40;;;;;;;17.51;100.00;102212.50;10439799;28;20056;-74
2023/09/14 01:51:09;;;;;;;0.00;0.00;;;;;;;18.63;100.00;102217.75;10445808;28;20088;-75
2023/09/14 01:56:11;;;;;;;0.00;0.00;;;;;;;18.71;100.00;102221.34;10431154;28;20075;-74
2023/09/14 02:01:13;;;;;;;0.00;0.00;;;;;;;19.08;100.00;102218.31;10424797;28;20076;-75
2023/09/14 02:06:15;;;;;;;0.00;0.00;;;;;;;19.01;100.00;102212.19;10436958;28;20170;-75
2023/09/14 02:11:17;;;;;;;0.08;0.00;;;;;;;18.79;100.00;102217.97;10444598;28;20504;-74
2023/09/14 02:16:18;;;;;;;0.00;0.00;;;;;;;18.63;100.00;102202.09;10438481;28;20404;-75
2023/09/14 02:21:20;;;;;;;0.10;0.10;;;;;;;18.66;100.00;102204.72;10448616;28;20076;-74
2023/09/14 02:26:22;;;;;;;0.00;0.00;;;;;;;18.67;100.00;102206.50;10449919;28;20045;-74
2023/09/14 02:31:25;;;;;;;0.00;0.00;;;;;;;18.32;100.00;102199.06;10452992;28;21365;-75
2023/09/14 02:36:27;;;;;;;0.00;0.00;;;;;;;18.47;100.00;102202.75;10438997;28;20106;-74
2023/09/14 02:41:29;;;;;;;0.00;0.00;;;;;;;18.25;100.00;102199.81;10435931;28;20055;-74
2023/09/14 02:46:31;;;;;;;0.00;0.00;;;;;;;18.46;100.00;102196.66;10436420;28;20041;-75
2023/09/14 02:51:33;;;;;;;0.00;0.00;;;;;;;17.33;100.00;102192.19;10448969;28;20048;-75
2023/09/14 02:56:35;;;;;;;0.25;0.10;;;;;;;17.83;100.00;102183.50;10446971;28;20499;-74
2023/09/14 03:01:37;;;;;;;0.00;0.00;;;;;;;17.93;100.00;102184.53;10442954;28;20081;-75
2023/09/14 03:06:39;;;;;;;0.00;0.00;;;;;;;17.66;100.00;102187.56;10442119;28;20087;-75
2023/09/14 03:11:41;;;;;;;0.00;0.00;;;;;;;17.08;100.00;102170.91;10440188;28;20044;-75
2023/09/14 03:16:43;;;;;;;0.00;0.00;;;;;;;17.35;100.00;102185.28;10446483;28;20048;-74
2023/09/14 03:21:45;;;;;;;2.67;0.45;;;;;;;17.59;100.00;102186.59;10459867;28;20480;-75
2023/09/14 03:26:47;;;;;;;0.00;0.00;;;;;;;17.21;100.00;102191.97;10441881;28;20048;-74
2023/09/14 03:31:50;;;;;;;0.00;0.00;;;;;;;17.15;100.00;102197.06;10457961;28;20127;-75
2023/09/14 03:36:52;;;;;;;0.00;0.00;;;;;;;17.04;100.00;102202.94;10456031;28;20057;-75
2023/09/14 03:41:55;;;;;;;0.00;0.00;;;;;;;17.18;100.00;102203.22;10457083;28;20139;-74
2023/09/14 03:46:57;;;;;;;0.05;0.05;;;;;;;16.64;100.00;102202.09;10456080;28;20045;-75
2023/09/14 03:52:00;;;;;;;0.00;0.00;;;;;;;17.21;100.00;102194.59;10448854;28;20079;-74
2023/09/14 03:57:02;;;;;;;0.03;0.03;;;;;;;17.13;100.00;102204.84;10434334;28;20043;-75
2023/09/14 04:02:03;;;;;;;0.60;0.22;;;;;;;17.19;100.00;102201.47;10442775;28;20045;-74
2023/09/14 04:07:05;;;;;;;0.00;0.00;;;;;;;16.39;100.00;102188.53;10438152;28;20397;-75
2023/09/14 04:12:07;;;;;;;0.10;0.10;;;;;;;16.71;100.00;102193.56;10457423;28;20522;-74
2023/09/14 04:17:09;;;;;;;0.00;0.00;;;;;;;16.69;100.00;102187.44;10449583;28;20037;-74
2023/09/14 04:22:11;;;;;;;0.17;0.05;;;;;;;17.72;100.00;102201.56;10452001;28;20187;-74
2023/09/14 04:27:12;;;;;;;0.00;0.00;;;;;;;17.35;100.00;102200.06;10456397;28;20045;-75
2023/09/14 04:32:14;;;;;;;0.10;0.10;;;;;;;17.11;100.00;102207.41;10456692;28;20400;-75
2023/09/14 04:37:16;;;;;;;0.00;0.00;;;;;;;16.94;100.00;102207.09;10439307;28;20037;-75
2023/09/14 04:42:18;;;;;;;0.00;0.00;;;;;;;16.37;100.00;102200.63;10443721;28;20515;-75
2023/09/14 04:47:20;;;;;;;0.10;0.10;;;;;;;16.05;100.00;102198.16;10436104;28;20474;-74
2023/09/14 04:52:22;;;;;;;0.00;0.00;;;;;;;16.36;100.00;102193.66;10448313;28;20052;-74
2023/09/14 04:57:24;;;;;;;0.10;0.00;;;;;;;16.34;100.00;102211.84;10446756;28;20049;-74
2023/09/14 05:02:27;;;;;;;0.10;0.10;;;;;;;16.19;100.00;102219.28;10445745;28;20049;-74
2023/09/14 05:07:30;;;;;;;0.70;0.28;;;;;;;16.08;100.00;102220.75;10449354;28;20041;-74
2023/09/14 05:12:32;;;;;;;0.00;0.00;;;;;;;15.79;100.00;102218.25;10438071;28;20044;-74
2023/09/14 05:17:34;;;;;;;0.45;0.15;;;;;;;15.23;100.00;102219.41;10439405;28;20033;-75
2023/09/14 05:22:38;;;;;;;0.00;0.00;;;;;;;15.91;100.00;102221.22;10451626;28;20041;-74
2023/09/14 05:27:41;;;;;;;0.00;0.00;;;;;;;15.70;100.00;102226.72;10437787;28;20055;-75
2023/09/14 05:32:43;;;;;;;0.00;0.00;;;;;;;15.79;100.00;102226.94;10454100;28;20052;-75
2023/09/14 05:37:46;;;;;;;0.15;0.05;;;;;;;15.82;100.00;102227.00;10452467;28;20451;-75
2023/09/14 05:42:48;;;;;;;0.00;0.00;;;;;;;14.86;100.00;102231.34;10437724;28;20578;-75
2023/09/14 05:47:50;;;;;;;0.00;0.00;;;;;;;15.18;100.00;102240.03;10444284;28;20041;-75
2023/09/14 05:52:55;;;;;;;0.15;0.10;;;;;;;15.49;100.00;102243.50;10453361;28;20025;-76
2023/09/14 05:57:57;;;;;;;0.00;0.00;;;;;;;16.04;100.00;102256.22;10447698;28;20076;-74
2023/09/14 06:02:59;;;;;;;0.17;0.17;;;;;;;16.46;100.00;102258.06;10448007;28;20044;-74
2023/09/14 06:08:02;;;;;;;0.00;0.00;;;;;;;15.69;100.00;102253.53;10438904;28;20038;-75
2023/09/14 06:13:05;;;;;;;0.00;0.00;;;;;;;15.98;100.00;102253.44;10469215;28;20106;-74
2023/09/14 06:18:06;;;;;;;0.00;0.00;;;;;;;17.31;100.00;102253.81;10436480;28;20403;-75
2023/09/14 06:23:08;;;;;;;0.00;0.00;;;;;;;17.55;100.00;102255.13;10429648;28;20049;-75
2023/09/14 06:28:10;;;;;;;0.10;0.10;;;;;;;18.11;100.00;102256.13;10448481;28;20829;-75
2023/09/14 06:33:11;;;;;;;0.00;0.00;;;;;;;18.11;100.00;102261.34;10445797;28;20044;-75
2023/09/14 06:38:13;;;;;;;0.00;0.00;;;;;;;19.12;100.00;102261.94;10453518;28;20080;-75
2023/09/14 06:43:15;;;;;;;0.00;0.00;;;;;;;20.17;100.00;102267.31;10460558;28;20128;-75
2023/09/14 06:48:16;;;;;;;0.00;0.00;;;;;;;20.63;100.00;102261.50;10439976;28;20036;-75
2023/09/14 06:53:18;;;;;;;0.03;0.00;;;;;;;20.83;100.00;102252.94;10441759;28;20061;-75
2023/09/14 06:58:19;;;;;;;0.00;0.00;;;;;;;21.01;100.00;102257.38;10441149;28;20041;-75
2023/09/14 07:03:22;;;;;;;0.10;0.10;;;;;;;20.98;100.00;102259.97;10448078;28;20041;-76
2023/09/14 07:08:24;;;;;;;0.68;0.10;;;;;;;21.79;100.00;102272.44;10452659;28;20044;-75
2023/09/14 07:13:26;;;;;;;0.00;0.00;;;;;;;21.96;100.00;102276.81;10447698;28;20049;-75
2023/09/14 07:18:29;;;;;;;0.00;0.00;;;;;;;20.97;100.00;102268.69;10419732;28;20049;-75
2023/09/14 07:23:31;;;;;;;0.90;0.32;;;;;;;21.98;100.00;102270.69;10440338;28;20073;-75
2023/09/14 07:28:33;;;;;;;0.28;0.10;;;;;;;21.70;100.00;102280.31;10419755;28;20037;-75
2023/09/14 07:33:34;;;;;;;0.10;0.10;;;;;;;22.34;100.00;102284.66;10444117;28;20045;-75
2023/09/14 07:38:37;;;;;;;0.10;0.10;;;;;;;21.68;100.00;102285.53;10427918;28;20072;-75
2023/09/14 07:43:38;;;;;;;0.10;0.10;;;;;;;22.38;100.00;102288.16;10432528;28;20048;-75
2023/09/14 07:48:42;;;;;;;1.00;0.13;;;;;;;22.48;100.00;102291.69;10442313;28;20398;-76
2023/09/14 07:53:44;;;;;;;0.13;0.13;;;;;;;23.03;100.00;102287.13;10430083;28;20037;-75
2023/09/14 07:58:46;;;;;;;0.10;0.10;;;;;;;22.84;100.00;102296.84;10437773;28;20049;-75
2023/09/14 08:03:49;;;;;;;0.00;0.00;;;;;;;23.65;100.00;102295.59;10432516;28;20412;-75
2023/09/14 08:08:53;;;;;;;0.65;0.22;;;;;;;23.03;100.00;102295.91;10444285;28;20056;-76
2023/09/14 08:13:55;;;;;;;0.00;0.00;;;;;;;24.03;100.00;102297.09;10450307;28;20049;-75
2023/09/14 08:18:57;;;;;;;0.30;0.10;;;;;;;24.02;100.00;102300.59;10427226;28;20514;-75
2023/09/14 08:23:59;;;;;;;0.08;0.08;;;;;;;23.51;100.00;102297.44;10451093;28;20055;-76
2023/09/14 08:29:00;;;;;;;0.35;0.28;;;;;;;24.71;100.00;102298.25;10443102;28;20056;-75
2023/09/14 08:34:02;;;;;;;0.00;0.00;;;;;;;24.68;100.00;102301.78;10431171;28;20051;-75
2023/09/14 08:39:04;;;;;;;0.00;0.00;;;;;;;24.64;100.00;102297.38;10454369;28;20040;-75
2023/09/14 08:44:13;;;;;;;0.17;0.17;;;;;;;23.63;100.00;102296.47;10445133;28;20120;-76
2023/09/14 08:49:19;;;;;;;0.00;0.00;;;;;;;25.41;100.00;102292.09;10418094;28;20036;-75
2023/09/14 08:54:21;;;;;;;6.18;0.22;;;;;;;23.70;100.00;102288.56;10440212;28;20385;-75
2023/09/14 08:59:23;;;;;;;0.10;0.00;;;;;;;23.27;100.00;102286.19;10437292;28;20052;-76
2023/09/14 09:04:25;;;;;;;0.20;0.20;;;;;;;23.32;100.00;102287.03;10432953;28;20053;-76
2023/09/14 09:09:28;;;;;;;0.10;0.10;;;;;;;24.02;100.00;102292.72;10424874;28;20492;-75
2023/09/14 09:14:31;;;;;;;0.10;0.10;;;;;;;24.11;100.00;102297.03;10438535;28;20496;-75
2023/09/14 09:19:47;;;;;;;0.00;0.00;;;;;;;23.53;100.00;102286.00;10435849;28;20055;-77
2023/09/14 09:24:49;;;;;;;0.00;0.00;;;;;;;25.57;100.00;102277.81;10457157;28;20143;-75
2023/09/14 09:29:51;;;;;;;0.00;0.00;;;;;;;24.48;100.00;102277.38;10446337;28;20051;-76
2023/09/14 09:34:52;;;;;;;0.20;0.20;;;;;;;25.87;100.00;102274.69;10432464;28;20049;-75
2023/09/14 09:39:55;;;;;;;0.25;0.00;;;;;;;24.92;100.00;102280.41;10435500;28;20079;-77
2023/09/14 09:44:58;;;;;;;0.20;0.20;;;;;;;25.01;100.00;102262.72;10432968;28;20037;-75
2023/09/14 09:50:01;;;;;;;2.35;0.30;;;;;;;25.21;100.00;102269.47;10436106;28;20120;-76
2023/09/14 09:55:04;;;;;;;0.10;0.10;;;;;;;25.46;100.00;102263.88;10426055;28;20455;-75
2023/09/14 10:00:13;;;;;;;0.10;0.10;;;;;;;25.81;100.00;102260.69;10435425;28;20068;-75
2023/09/14 10:05:15;;;;;;;0.52;0.10;;;;;;;25.85;100.00;102253.59;10436040;28;20088;-75
2023/09/14 10:10:23;;;;;;;0.82;0.40;;;;;;;26.96;100.00;102257.72;10444469;28;20063;-75
2023/09/14 10:15:26;;;;;;;0.00;0.00;;;;;;;26.00;100.00;102259.50;10429968;28;20547;-75
2023/09/14 10:20:29;;;;;;;0.00;0.00;;;;;;;24.14;100.00;102268.03;10442373;28;20037;-76
2023/09/14 10:25:31;;;;;;;0.55;0.15;;;;;;;25.56;100.00;102252.31;10438854;28;20057;-75
2023/09/14 10:30:33;;;;;;;0.00;0.00;;;;;;;25.97;100.00;102258.66;10439183;28;20059;-76
2023/09/14 10:35:38;;;;;;;0.17;0.10;;;;;;;26.96;100.00;102255.06;10441318;28;20056;-77
2023/09/14 10:40:41;;;;;;;6.45;0.63;;;;;;;25.65;100.00;102249.50;10443233;28;20041;-75
2023/09/14 10:45:45;;;;;;;0.10;0.10;;;;;;;26.11;100.00;102252.28;10440530;28;20041;-76
2023/09/14 10:50:49;;;;;;;0.00;0.00;;;;;;;26.56;100.00;102241.75;10442690;28;20489;-75
2023/09/14 10:55:51;;;;;;;1.65;0.80;;;;;;;26.88;100.00;102244.66;10426361;28;20047;-75
2023/09/14 11:00:58;;;;;;;0.08;0.08;;;;;;;24.21;100.00;102250.44;10427745;28;20192;-76
2023/09/14 11:06:49;;;;;;;0.10;0.10;;;;;;;26.40;100.00;102237.66;10392307;28;20166;-76
2023/09/14 11:11:52;;;;;;;0.40;0.10;;;;;;;24.78;100.00;102239.28;10433601;28;20132;-76
2023/09/14 11:16:58;;;;;;;0.00;0.00;;;;;;;26.33;100.00;102230.75;10434062;28;20043;-76
2023/09/14 11:22:01;;;;;;;0.47;0.13;;;;;;;26.34;100.00;102230.75;10436130;28;20068;-76
2023/09/14 11:27:04;;;;;;;0.28;0.28;;;;;;;25.38;100.00;102228.78;10435457;28;20447;-76
2023/09/14 11:32:07;;;;;;;0.10;0.10;;;;;;;23.52;100.00;102241.31;10450418;28;20079;-75
2023/09/14 11:37:14;;;;;;;0.68;0.20;;;;;;;24.39;100.00;102231.78;10435106;28;20071;-75
2023/09/14 11:42:22;;;;;;;0.00;0.00;;;;;;;24.42;100.00;102236.19;10448420;28;20515;-75
2023/09/14 11:47:25;;;;;;;0.65;0.10;;;;;;;24.15;100.00;102242.59;10434534;28;20045;-75
2023/09/14 11:52:34;;;;;;;0.30;0.30;;;;;;;25.90;100.00;102233.25;10445167;28;20516;-75
2023/09/14 11:57:37;;;;;;;0.10;0.10;;;;;;;25.38;100.00;102234.06;10446694;28;20041;-75
2023/09/14 12:02:39;;;;;;;0.00;0.00;;;;;;;24.98;100.00;102240.78;10430232;28;20130;-75
2023/09/14 12:07:41;;;;;;;0.00;0.00;;;;;;;26.42;100.00;102233.22;10434739;28;20414;-75
2023/09/14 12:12:43;;;;;;;0.00;0.00;;;;;;;26.14;100.00;102225.81;10448164;28;20099;-76
2023/09/14 12:17:52;;;;;;;2.28;0.10;;;;;;;24.52;100.00;102227.25;10427711;28;20053;-76
2023/09/14 12:22:55;;;;;;;0.10;0.10;;;;;;;24.62;100.00;102227.16;10414876;28;20045;-75
2023/09/14 12:27:59;;;;;;;0.00;0.00;;;;;;;24.91;100.00;102229.44;10428072;28;20538;-75
2023/09/14 12:33:03;;;;;;;0.38;0.20;;;;;;;25.06;100.00;102222.25;10447965;28;20048;-75
2023/09/14 12:38:05;;;;;;;0.00;0.00;;;;;;;24.36;100.00;102226.56;10450213;28;20057;-75
2023/09/14 12:43:07;;;;;;;0.00;0.00;;;;;;;26.06;100.00;102211.84;10447165;28;20052;-75
2023/09/14 12:48:09;;;;;;;0.10;0.10;;;;;;;25.73;100.00;102201.00;10449780;28;20057;-75
2023/09/14 12:53:14;;;;;;;0.08;0.08;;;;;;;26.66;100.00;102192.19;10452814;28;20041;-75
2023/09/14 12:58:21;;;;;;;0.15;0.15;;;;;;;27.39;100.00;102204.69;10448128;28;20037;-75
2023/09/14 13:03:25;;;;;;;0.47;0.20;;;;;;;25.73;100.00;102199.25;10447691;28;20048;-76
2023/09/14 13:08:27;;;;;;;2.60;0.30;;;;;;;25.21;100.00;102182.44;10452172;28;20064;-76
2023/09/14 13:13:32;;;;;;;0.13;0.10;;;;;;;26.12;100.00;102180.97;10434042;28;20507;-76
2023/09/14 13:18:34;;;;;;;1.60;0.52;;;;;;;25.53;100.00;102160.00;10447887;28;20511;-75
2023/09/14 13:23:36;;;;;;;0.20;0.10;;;;;;;24.49;100.00;102164.09;10446639;28;20049;-75
2023/09/14 13:28:37;;;;;;;0.30;0.10;;;;;;;25.48;100.00;102169.75;10453320;28;20040;-75
2023/09/14 13:33:40;;;;;;;0.10;0.10;;;;;;;24.83;100.00;102168.09;10447759;28;20037;-76
2023/09/14 13:38:41;;;;;;;0.10;0.10;;;;;;;25.86;100.00;102152.38;10451919;28;20052;-76
2023/09/14 13:43:43;;;;;;;0.55;0.10;;;;;;;25.27;100.00;102150.72;10451868;28;20057;-75
2023/09/14 13:48:45;;;;;;;0.32;0.10;;;;;;;25.14;100.00;102147.41;10428174;28;20072;-75
2023/09/14 13:53:47;;;;;;;0.47;0.30;;;;;;;25.09;100.00;102140.44;10455606;28;20049;-75
2023/09/14 13:58:49;;;;;;;0.25;0.20;;;;;;;25.43;100.00;102137.31;10435494;28;20095;-75
2023/09/14 14:03:51;;;;;;;0.00;0.00;;;;;;;25.37;100.00;102130.34;10430196;28;20052;-75
2023/09/14 14:08:53;;;;;;;0.00;0.00;;;;;;;25.82;100.00;102124.28;10448156;28;20136;-75
2023/09/14 14:13:54;;;;;;;0.30;0.10;;;;;;;26.45;100.00;102120.41;10449112;28;20045;-75
2023/09/14 14:18:56;;;;;;;0.10;0.10;;;;;;;26.41;100.00;102116.09;10449097;28;20120;-75
2023/09/14 14:23:58;;;;;;;0.10;0.00;;;;;;;26.45;100.00;102111.63;10436112;28;20053;-75
2023/09/14 14:29:00;;;;;;;0.30;0.30;;;;;;;25.64;100.00;102115.84;10430640;28;20120;-76
2023/09/14 14:34:03;;;;;;;0.00;0.00;;;;;;;25.28;100.00;102110.25;10433789;28;20055;-75
2023/09/14 14:39:04;;;;;;;0.52;0.30;;;;;;;25.47;100.00;102117.88;10452716;28;20040;-75
2023/09/14 14:44:06;;;;;;;0.00;0.00;;;;;;;24.98;100.00;102115.09;10416487;28;20045;-75
2023/09/14 14:49:08;;;;;;;0.10;0.10;;;;;;;25.53;100.00;102111.63;10452901;28;20033;-75
2023/09/14 14:54:11;;;;;;;0.05;0.05;;;;;;;25.76;100.00;102113.84;10428472;28;20455;-75
2023/09/14 14:59:13;;;;;;;0.20;0.10;;;;;;;25.82;100.00;102105.81;10457545;28;20049;-74
2023/09/14 15:04:14;;;;;;;0.30;0.10;;;;;;;25.80;100.00;102100.56;10438198;28;20045;-75
2023/09/14 15:09:16;;;;;;;0.10;0.05;;;;;;;26.07;100.00;102097.41;10446107;28;20432;-75
2023/09/14 15:14:18;;;;;;;0.52;0.20;;;;;;;25.25;100.00;102101.50;10453248;28;20053;-76
2023/09/14 15:19:20;;;;;;;0.08;0.08;;;;;;;26.02;100.00;102088.72;10436172;28;20053;-75
2023/09/14 15:24:22;;;;;;;0.57;0.22;;;;;;;26.16;100.00;102075.25;10443160;28;20080;-76
2023/09/14 15:29:24;;;;;;;0.40;0.30;;;;;;;25.17;100.00;102073.50;10452171;28;20045;-76
2023/09/14 15:34:26;;;;;;;0.30;0.25;;;;;;;24.21;100.00;102080.16;10429479;28;20702;-77
2023/09/14 15:39:29;;;;;;;0.13;0.10;;;;;;;25.68;100.00;102077.06;10440517;28;20052;-77
2023/09/14 15:44:35;;;;;;;0.60;0.30;;;;;;;24.92;100.00;102080.94;10440868;28;20059;-76
2023/09/14 15:49:37;;;;;;;0.32;0.28;;;;;;;25.56;100.00;102075.53;10435996;28;20096;-76
2023/09/14 15:54:39;;;;;;;0.40;0.10;;;;;;;25.28;100.00;102075.94;10455690;28;20488;-76
2023/09/14 15:59:40;;;;;;;0.68;0.30;;;;;;;25.47;100.00;102080.94;10435236;28;20048;-77
2023/09/14 16:04:43;;;;;;;0.10;0.10;;;;;;;25.38;100.00;102081.06;10457453;28;20496;-76
2023/09/14 16:09:45;;;;;;;0.22;0.10;;;;;;;25.25;100.00;102076.03;10433290;28;20049;-77
2023/09/14 16:14:47;;;;;;;0.22;0.10;;;;;;;25.78;100.00;102069.84;10440601;28;20045;-76
2023/09/14 16:19:48;;;;;;;1.80;0.35;;;;;;;25.54;100.00;102061.47;10443408;28;20033;-76
2023/09/14 16:24:50;;;;;;;0.00;0.00;;;;;;;25.64;100.00;102060.41;10447145;28;20536;-77
2023/09/14 16:29:52;;;;;;;0.17;0.03;;;;;;;25.57;100.00;102064.06;10436131;28;20095;-77
2023/09/14 16:34:53;;;;;;;0.00;0.00;;;;;;;24.89;100.00;102067.84;10450142;28;20041;-77
2023/09/14 16:39:57;;;;;;;0.03;0.03;;;;;;;24.70;100.00;102062.81;10440148;28;20080;-77
2023/09/14 16:44:58;;;;;;;0.17;0.17;;;;;;;25.06;100.00;102069.34;10456341;28;20056;-77
2023/09/14 16:50:00;;;;;;;0.00;0.00;;;;;;;25.15;100.00;102063.88;10438882;28;20041;-77
2023/09/14 16:55:04;;;;;;;0.38;0.30;;;;;;;25.00;100.00;102065.88;10447648;28;20131;-77
2023/09/14 17:00:07;;;;;;;0.40;0.10;;;;;;;24.93;100.00;102058.97;10427870;28;20045;-76
2023/09/14 17:05:09;;;;;;;0.03;0.03;;;;;;;24.50;100.00;102070.13;10453921;28;20056;-77
2023/09/14 17:10:10;;;;;;;0.00;0.00;;;;;;;24.65;100.00;102074.28;10443528;28;20045;-77
2023/09/14 17:15:12;;;;;;;0.10;0.10;;;;;;;24.49;100.00;102069.25;10443119;28;20045;-77
2023/09/14 17:20:14;;;;;;;0.20;0.17;;;;;;;24.14;100.00;102069.72;10442332;28;20048;-76
2023/09/14 17:25:16;;;;;;;0.08;0.08;;;;;;;24.07;100.00;102066.28;10432887;28;20106;-76
2023/09/14 17:30:18;;;;;;;0.20;0.10;;;;;;;23.33;100.00;102061.78;10441990;28;20052;-76
2023/09/14 17:35:19;;;;;;;0.10;0.00;;;;;;;23.07;100.00;102063.72;10448250;28;20048;-76
2023/09/14 17:40:22;;;;;;;0.00;0.00;;;;;;;22.68;100.00;102063.09;10449188;28;20118;-76
2023/09/14 17:45:23;;;;;;;0.43;0.28;;;;;;;22.31;100.00;102064.16;10433279;28;20056;-76
2023/09/14 17:50:26;;;;;;;0.32;0.10;;;;;;;22.18;100.00;102058.09;10432511;28;20037;-76
2023/09/14 17:55:28;;;;;;;0.05;0.05;;;;;;;22.21;100.00;102056.34;10438020;28;20446;-75
2023/09/14 18:00:31;;;;;;;0.00;0.00;;;;;;;21.76;100.00;102057.34;10449250;28;20384;-76
2023/09/14 18:05:33;;;;;;;0.10;0.10;;;;;;;21.85;100.00;102053.81;10432675;28;20511;-76
2023/09/14 18:10:34;;;;;;;0.10;0.10;;;;;;;21.55;100.00;102060.84;10432584;28;20511;-76
2023/09/14 18:15:40;;;;;;;0.20;0.10;;;;;;;21.37;100.00;102056.50;10433177;28;20052;-76
2023/09/14 18:20:42;;;;;;;0.05;0.00;;;;;;;21.31;100.00;102067.00;10432865;28;20140;-75
2023/09/14 18:25:44;;;;;;;0.25;0.25;;;;;;;21.00;100.00;102067.00;10457161;28;20049;-75
2023/09/14 18:30:45;;;;;;;0.22;0.20;;;;;;;20.91;100.00;102068.72;10440575;28;20052;-76
2023/09/14 18:35:54;;;;;;;0.10;0.10;;;;;;;20.73;100.00;102073.94;10447418;28;20049;-76
2023/09/14 18:41:01;;;;;;;0.13;0.13;;;;;;;20.73;100.00;102081.81;10453987;28;20033;-76
2023/09/14 18:46:09;;;;;;;0.65;0.43;;;;;;;20.42;100.00;102085.16;10447984;28;20140;-76
2023/09/14 18:51:12;;;;;;;0.00;0.00;;;;;;;20.11;100.00;102089.38;10451935;28;20086;-76
2023/09/14 18:56:14;;;;;;;0.05;0.03;;;;;;;19.93;100.00;102096.25;10434307;28;20474;-75
2023/09/14 19:01:16;;;;;;;0.00;0.00;;;;;;;20.07;100.00;102098.97;10455482;28;20037;-75
2023/09/14 19:06:18;;;;;;;0.00;0.00;;;;;;;19.72;100.00;102098.69;10447213;28;20052;-76
2023/09/14 19:11:19;;;;;;;0.32;0.22;;;;;;;19.86;100.00;102101.44;10437486;28;20041;-76
2023/09/14 19:16:21;;;;;;;0.00;0.00;;;;;;;19.69;100.00;102093.47;10439042;28;20056;-76
2023/09/14 19:21:23;;;;;;;0.55;0.20;;;;;;;19.87;100.00;102091.00;10438162;28;20083;-76
2023/09/14 19:26:24;;;;;;;0.55;0.28;;;;;;;19.50;100.00;102093.31;10453963;28;20057;-76
2023/09/14 19:31:26;;;;;;;0.20;0.20;;;;;;;19.42;100.00;102092.38;10455491;28;20476;-76
2023/09/14 19:36:28;;;;;;;0.10;0.03;;;;;;;18.98;100.00;102099.84;10451425;28;20388;-76
2023/09/14 19:41:29;;;;;;;0.10;0.10;;;;;;;19.14;100.00;102099.97;10453997;28;20381;-76
2023/09/14 19:46:31;;;;;;;0.28;0.28;;;;;;;19.09;100.00;102102.56;10426355;28;20045;-76
2023/09/14 19:51:33;;;;;;;0.17;0.10;;;;;;;19.14;100.00;102099.97;10446203;28;20045;-75
2023/09/14 19:56:34;;;;;;;0.52;0.30;;;;;;;19.10;100.00;102106.06;10454103;28;20059;-76
2023/09/14 20:01:36;;;;;;;0.00;0.00;;;;;;;18.93;100.00;102096.31;10452832;28;20060;-76
2023/09/14 20:06:38;;;;;;;0.50;0.10;;;;;;;19.01;100.00;102094.66;10448880;28;20095;-75
2023/09/14 20:11:39;;;;;;;0.20;0.20;;;;;;;19.13;100.00;102090.41;10436243;28;20059;-76
2023/09/14 20:16:43;;;;;;;0.00;0.00;;;;;;;18.68;100.00;102084.69;10452405;28;20057;-76
2023/09/14 20:21:45;;;;;;;0.00;0.00;;;;;;;18.69;100.00;102094.28;10417993;28;20053;-75
2023/09/14 20:26:47;;;;;;;0.15;0.10;;;;;;;18.89;100.00;102091.00;10428929;28;20049;-76
2023/09/14 20:31:49;;;;;;;0.10;0.00;;;;;;;18.90;100.00;102080.56;10434936;28;20052;-76
2023/09/14 20:36:51;;;;;;;0.00;0.00;;;;;;;18.75;100.00;102083.00;10449032;28;20412;-76
2023/09/14 20:41:54;;;;;;;0.20;0.00;;;;;;;18.59;100.00;102082.84;10444387;28;20045;-76
2023/09/14 20:46:56;;;;;;;0.32;0.20;;;;;;;18.86;100.00;102073.56;10435250;28;20049;-76
2023/09/14 20:51:59;;;;;;;0.05;0.05;;;;;;;18.62;100.00;102077.66;10449392;28;20086;-76
2023/09/14 20:57:01;;;;;;;0.05;0.05;;;;;;;18.37;100.00;102072.16;10451128;28;20063;-76
2023/09/14 21:02:03;;;;;;;0.10;0.00;;;;;;;18.85;100.00;102069.22;10429630;28;20052;-75
2023/09/14 21:07:05;;;;;;;0.55;0.35;;;;;;;18.52;100.00;102070.59;10434157;28;20618;-76
2023/09/14 21:12:08;;;;;;;0.00;0.00;;;;;;;18.28;100.00;102072.03;10434375;28;20115;-75
2023/09/14 21:17:09;;;;;;;0.00;0.00;;;;;;;18.59;100.00;102069.78;10450467;28;20128;-76
2023/09/14 21:22:11;;;;;;;0.13;0.08;;;;;;;18.43;100.00;102075.72;10450321;28;20045;-76
2023/09/14 21:27:14;;;;;;;0.20;0.20;;;;;;;18.71;100.00;102069.94;10432828;28;20107;-76
2023/09/14 21:32:16;;;;;;;0.60;0.30;;;;;;;18.61;100.00;102070.69;10450390;28;20547;-76
2023/09/14 21:37:17;;;;;;;0.93;0.20;;;;;;;18.59;100.00;102068.94;10449936;28;20053;-76
2023/09/14 21:42:19;;;;;;;0.00;0.00;;;;;;;18.72;100.00;102065.59;10449472;28;20118;-75
2023/09/14 21:47:22;;;;;;;0.00;0.00;;;;;;;18.58;100.00;102065.44;10433020;28;20408;-76
2023/09/14 21:52:24;;;;;;;0.10;0.10;;;;;;;18.39;100.00;102064.38;10449643;28;20049;-76
2023/09/14 21:57:25;;;;;;;0.80;0.40;;;;;;;18.53;100.00;102062.78;10437382;28;20087;-76
2023/09/14 22:02:30;;;;;;;0.00;0.00;;;;;;;18.11;100.00;102057.91;10442968;28;20067;-76
2023/09/14 22:07:32;;;;;;;0.30;0.22;;;;;;;17.77;100.00;102059.16;10445187;28;20411;-76
2023/09/14 22:12:34;;;;;;;0.10;0.10;;;;;;;18.36;100.00;102062.56;10432142;28;20102;-76
2023/09/14 22:17:36;;;;;;;0.00;0.00;;;;;;;18.04;100.00;102056.94;10431490;28;20053;-76
2023/09/14 22:22:37;;;;;;;0.20;0.20;;;;;;;18.10;100.00;102061.38;10448826;28;20052;-76
2023/09/14 22:27:39;;;;;;;0.00;0.00;;;;;;;18.32;100.00;102058.19;10431514;28;20060;-76
2023/09/14 22:32:41;;;;;;;0.20;0.10;;;;;;;17.88;100.00;102061.91;10432265;28;20063;-76
2023/09/14 22:37:43;;;;;;;0.10;0.10;;;;;;;18.19;100.00;102051.06;10447939;28;20136;-76
2023/09/14 22:42:51;;;;;;;0.28;0.10;;;;;;;18.19;100.00;102048.47;10431221;28;20075;-76
2023/09/14 22:47:55;;;;;;;0.00;0.00;;;;;;;18.10;100.00;102045.72;10445117;28;20468;-76
2023/09/14 22:52:57;;;;;;;0.00;0.00;;;;;;;18.36;100.00;102040.84;10445844;28;20045;-76
2023/09/14 22:57:58;;;;;;;0.00;0.00;;;;;;;18.05;100.00;102040.47;10430848;28;20053;-76